Skip Navigation Links Skip Navigation Links

Current Weather

Monterey Peninsula, Monterey, Calif.

For information only: do not use for flight planning or navigation.
Latest weather
Observation time Thursday, January 27, 2022 8:54 PM PST
Local time Thursday, January 27, 2022 10:04 PM PST
Flight conditions Visual Meteorological Conditions
Winds
Wind direction East-Southeast (120°)
Wind speed 3 mph
Visibility 10 mi.
Sky condition
Ceiling unlimited
Sky clear
Temperature 48°F
Dewpoint 37°F
Altimeter 30.24 in.Hg
Derived measurements
Relative humidity 66%
Wind chill 47°F
Density altitude -731 ft.
Sea-level pressure 30.27 in.Hg
Remarks
Automated weather observing station with precipitation discriminator.
METAR KMRY 280454Z 12003KT 10SM CLR 09/03 A3024 RMK AO2 SLP252 T00890028

Settings

Location code

InnerDrive.Weather 4.0.6770.0 Release CLR 4.0.30319.42000
Copyright ©2018 Inner Drive Technology. All rights reserved. Portions Copyright ©1986-2018 David Braverman.

Find weather

Site navigation


Skip Navigation Links

Place info

Page info

PayPal - The safer, easier way to pay online!

Return home.

Copyright ©2022 Inner Drive Technology. Purveyors of fine, hand-crafted computer software. Page printed 2022-01-28T06:04:09 UTC.